Airfield :
LOGIN :

Register | Disclaimer

   EN    FR    IT 

 










Legend :    VFR   Marginal VFR   IFR   Intensive IFR   Very Intensive IFR
Visi :
Ceiling :
>= 8 km
>= 3000ft
5 to 8 km
1000 to 3000 ft
1500m to 5 km
500 to 1000 ft
800 to 1500m
200 to 500 ft
< 800m
< 200 ft
Symbols :   Thunderstorms  Fog  Heavy snow  Heavy precipitations  Wind > 20 kt
SIGMETs :     Misc.  Thunderstorms  Icing  Turbulence  Mountain Waves  Volcanic Ashes






- Airport Elevation : 140 ft
- IATA code : NYO


ESKN - Skavsta

CURRENT METAR :
  • 251220Z 10016KT 9999 BKN020 03/M01 Q0990 R08/09//95

EXPIRED METARs :
  • 251150Z 11015KT 9999 VCSH BKN019 04/M01 Q0991 R08/09//95
  • 251120Z 10014KT 9999 BKN018 03/M00 Q0991 R08/09//95
  • 251050Z 11016KT 9999 BKN019 04/M01 Q0991 R08/09//95
  • 251020Z 09009KT 9999 SCT019 BKN098 03/00 Q0992 R08/09//95
  • 250950Z 07009KT 9999 FEW015 SCT100 02/M00 Q0992 R08/09//95

TAF TAF ESKN
Valid from the 25 at 12:00 until the 26 at 12:00 UTC


251130Z 2512/2612 10015KT 9999 BKN020
PROB40 2512/2516 2500 -SNRA BKN014
BECMG 2516/2518 4000 -SN
TEMPO 2518/2612 1400 SN VV012
BECMG 2520/2522 05015G25KT



MET'MAP, your aeronautical weather chart ! - Copyright ORBIFLY December 2007 - Disclaimer

ORBIFLY MET'MAP TEAM :

Programming & Development : Alexandra Zaïnal
Concept & original design : Baudouin d'Aumeries
Assistance for programming : Marc-Olivier Méhu
Technical & hardware support : Manuel Goepfert

Contact : metmap@orbifly.com




SOURCES & CREDITS :

   NOAA